Flight Track Log - Related Links

Times and Time Zones

All times are in EDT time to prevent confusion due to time zone crossing. See the UAL289 flight status page for this flight to view local times or setup timezone preferences in your user account.

Time Position Orientation Groundspeed Altitude Reporting Facility
EDT Latitude Longitude Course Direction KTS MPH feet Rate Location/Type
Thu 07:27:56 PM 28.4167 -81.3167 270° West 185 213 800  Level Orlando TRACON
Thu 07:28:26 PM 28.3833 -81.3333 204° Southwest 204 235 1,700 2,357 Climbing Orlando TRACON
Thu 07:29:20 PM 28.3833 -81.4000 270° West 276 318 4,100 3,211 Climbing Orlando TRACON
Thu 07:30:20 PM 28.3833 -81.4833 270° West 263 303 7,800 2,962 Climbing Orlando TRACON
Thu 07:31:00 PM 28.4167 -81.8432 270° West  Level FlightAware Approximate
Thu 07:31:56 PM 28.3772 -81.6208 267° West 279 321 11,800  Level Jacksonville Center
Thu 07:32:00 PM 28.4167 -81.9790 270° West  Level FlightAware Approximate
Thu 07:32:56 PM 28.3928 -81.7175 280° West 295 339 14,300  Level Jacksonville Center
Thu 07:33:00 PM 28.4167 -82.1148 270° West  Level FlightAware Approximate
Thu 07:33:56 PM 28.4167 -81.8281 284° West 320 368 17,100  Level Jacksonville Center
Thu 07:34:56 PM 28.4511 -81.9292 291° West 325 374 18,900 1,950 Climbing Jacksonville Center
Thu 07:35:56 PM 28.4956 -82.0303 297° West 348 400 21,000 1,650 Climbing Jacksonville Center
Thu 07:36:56 PM 28.5317 -82.1294 293° West 359 413 22,200 1,100 Climbing Jacksonville Center
Thu 07:37:56 PM 28.5781 -82.2425 295° West 378 435 23,200 1,050 Climbing Jacksonville Center
Thu 07:38:56 PM 28.6289 -82.3653 295° West 406 467 24,300 2,050 Climbing Jacksonville Center
Thu 07:39:56 PM 28.6961 -82.4689 307° West 421 484 27,300 2,150 Climbing Jacksonville Center
Thu 07:40:56 PM 28.7964 -82.5325 331° Northwest 401 461 28,600 950 Climbing Jacksonville Center
Thu 07:41:56 PM 28.9031 -82.6008 331° Northwest 414 476 29,200 550 Climbing Jacksonville Center
Thu 07:42:56 PM 29.0181 -82.6742 331° Northwest 445 512 29,700 750 Climbing Jacksonville Center
Thu 07:43:56 PM 29.1369 -82.7500 331° Northwest 470 541 30,700 1,450 Climbing Jacksonville Center
Thu 07:44:56 PM 29.2456 -82.8356 326° Northwest 476 548 32,600 1,750 Climbing Jacksonville Center
Thu 07:45:56 PM 29.3250 -82.9472 309° West 462 532 34,200 1,200 Climbing Jacksonville Center
Thu 07:46:56 PM 29.4022 -83.0594 308° West 455 524 35,000 900 Climbing Jacksonville Center
Thu 07:47:56 PM 29.4792 -83.1742 308° West 455 524 36,000 500 Climbing Jacksonville Center
Thu 07:48:56 PM 29.5561 -83.2864 308° West 460 529 36,000  Level Jacksonville Center
Thu 07:49:56 PM 29.6328 -83.3992 308° West 455 524 36,000  Level Jacksonville Center
Thu 07:50:56 PM 29.7097 -83.5072 309° West 450 518 36,000 -50 Level Jacksonville Center
Thu 07:51:56 PM 29.7822 -83.6153 308° West 443 510 35,900  Descending Jacksonville Center
Thu 07:52:56 PM 29.8567 -83.7236 308° West 443 510 36,000 50 Climbing Jacksonville Center
Thu 07:53:56 PM 29.9331 -83.8344 309° West 443 510 36,000  Level Jacksonville Center
Thu 07:54:56 PM 30.0075 -83.9431 308° West 443 510 36,000  Level Jacksonville Center
Thu 07:55:56 PM 30.0817 -84.0544 308° West 443 510 36,000  Level Jacksonville Center
Thu 07:56:56 PM 30.1578 -84.1658 308° West 443 510 36,000  Level Jacksonville Center
Thu 07:57:56 PM 30.2278 -84.2725 307° West 433 498 36,000  Level Jacksonville Center
Thu 07:58:56 PM 30.3017 -84.3819 308° West 433 498 36,000  Level Jacksonville Center
Thu 07:59:56 PM 30.3775 -84.4914 309° West 438 504 36,000  Level Jacksonville Center
Thu 08:00:56 PM 30.4492 -84.6011 307° West 438 504 36,000  Level Jacksonville Center
Thu 08:01:56 PM 30.5228 -84.7108 308° West 438 504 36,000  Level Jacksonville Center
Thu 08:02:56 PM 30.5964 -84.8233 307° West 438 504 36,000  Level Jacksonville Center
Thu 08:03:56 PM 30.6697 -84.9358 307° West 443 510 36,000  Level Jacksonville Center
Thu 08:04:56 PM 30.7411 -85.0436 308° West 438 504 36,000  Level Jacksonville Center
Thu 08:05:56 PM 30.8164 -85.1567 308° West 438 504 36,000  Level Jacksonville Center
Thu 08:06:56 PM 30.8875 -85.2672 307° West 438 504 36,000  Level Jacksonville Center
Thu 08:07:56 PM 30.9625 -85.3781 308° West 443 510 36,000  Level Jacksonville Center
Thu 08:08:56 PM 31.0375 -85.4942 307° West 443 510 36,000  Level Jacksonville Center
Thu 08:09:56 PM 31.1083 -85.6028 307° West 443 510 36,000  Level Jacksonville Center
Thu 08:10:56 PM 31.1831 -85.7192 307° West 443 510 36,000 50 Level Jacksonville Center
Thu 08:11:56 PM 31.2614 -85.8478 305° West 438 504 36,100  Climbing Jacksonville Center
Thu 08:12:56 PM 31.3339 -85.9594 307° West 438 504 36,000 -30 Descending Jacksonville Center
Thu 08:15:13 PM 31.4939 -86.2039 308° West 447 514 36,000  Level Atlanta Center
Thu 08:16:13 PM 31.5650 -86.3178 306° West 439 505 36,000  Level Atlanta Center
Thu 08:17:13 PM 31.6378 -86.4317 307° West 439 505 36,000  Level Atlanta Center
Thu 08:18:13 PM 31.7108 -86.5458 307° West 439 505 36,000 50 Level Atlanta Center
Thu 08:19:13 PM 31.7836 -86.6603 307° West 439 505 36,100 50 Climbing Atlanta Center
Thu 08:20:13 PM 31.8583 -86.7775 307° West 444 511 36,100 -50 Level Atlanta Center
Thu 08:21:13 PM 31.9308 -86.8922 307° West 444 511 36,000 -50 Descending Atlanta Center
Thu 08:22:13 PM 32.0031 -87.0072 307° West 444 511 36,000  Level Atlanta Center
Thu 08:23:13 PM 32.0775 -87.1247 307° West 444 511 36,000  Level Atlanta Center
Thu 08:24:13 PM 32.1497 -87.2425 306° West 444 511 36,000 50 Level Atlanta Center
Thu 08:25:13 PM 32.2339 -87.3758 307° West 456 525 36,100 50 Climbing Atlanta Center
Thu 08:26:13 PM 32.3078 -87.4939 307° West 461 531 36,100 -50 Level Atlanta Center
Thu 08:27:13 PM 32.3794 -87.6125 306° West 456 525 36,000 -50 Descending Atlanta Center
Thu 08:28:13 PM 32.4511 -87.7308 306° West 451 519 36,000  Level Atlanta Center
Thu 08:30:21 PM 32.6053 -87.9775 307° West 437 503 36,000  Level Memphis Center
Thu 08:31:21 PM 32.6783 -88.0964 306° West 444 511 36,000  Level Memphis Center
Thu 08:32:21 PM 32.7494 -88.2181 305° West 449 517 36,000 50 Level Memphis Center
Thu 08:33:21 PM 32.8203 -88.3353 306° West 444 511 36,100 50 Climbing Memphis Center
Thu 08:34:21 PM 32.8975 -88.4597 306° West 449 517 36,100  Level Memphis Center
Thu 08:35:21 PM 32.9681 -88.5769 306° West 449 517 36,100 -50 Level Memphis Center
Thu 08:36:21 PM 33.0408 -88.6994 305° West 449 517 36,000 -50 Descending Memphis Center
Thu 08:37:21 PM 33.1111 -88.8194 305° West 444 511 36,000  Level Memphis Center
Thu 08:38:21 PM 33.1836 -88.9375 306° West 444 511 36,000  Level Memphis Center
Thu 08:39:21 PM 33.2539 -89.0581 305° West 444 511 36,000  Level Memphis Center
Thu 08:40:21 PM 33.3194 -89.1689 305° West 452 520 36,000 50 Level Memphis Center
Thu 08:41:21 PM 33.3894 -89.2872 305° West 452 520 36,100 50 Climbing Memphis Center
Thu 08:42:21 PM 33.4614 -89.4086 305° West 446 513 36,100 -50 Level Memphis Center
Thu 08:43:21 PM 33.5314 -89.5297 305° West 446 513 36,000 -50 Descending Memphis Center
Thu 08:44:21 PM 33.6008 -89.6489 305° West 446 513 36,000  Level Memphis Center
Thu 08:45:21 PM 33.6703 -89.7706 304° West 446 513 36,000 50 Level Memphis Center
Thu 08:46:21 PM 33.7397 -89.8900 305° West 441 507 36,100  Climbing Memphis Center
Thu 08:47:21 PM 33.8092 -90.0097 305° West 441 507 36,000 -50 Descending Memphis Center
Thu 08:48:21 PM 33.8761 -90.1294 304° West 441 507 36,000  Level Memphis Center
Thu 08:49:21 PM 33.9536 -90.2619 305° West 441 507 36,000  Level Memphis Center
Thu 08:50:21 PM 34.0225 -90.3847 304° West 441 507 36,000  Level Memphis Center
Thu 08:51:21 PM 34.0933 -90.5053 305° West 441 507 36,000 50 Level Memphis Center
Thu 08:52:21 PM 34.1619 -90.6283 304° West 441 507 36,100 50 Climbing Memphis Center
Thu 08:53:21 PM 34.2306 -90.7492 305° West 441 507 36,100  Level Memphis Center
Thu 08:54:21 PM 34.3011 -90.8725 305° West 446 513 36,100  Level Memphis Center
Thu 08:55:21 PM 34.3672 -90.9936 304° West 446 513 36,100 -50 Level Memphis Center
Thu 08:56:20 PM 34.4356 -91.1175 304° West 446 513 36,000 -50 Descending Memphis Center
Thu 08:57:21 PM 34.4994 -91.2292 305° West 446 513 36,000  Level Memphis Center
Thu 08:58:21 PM 34.5675 -91.3508 304° West 446 513 36,000  Level Memphis Center
Thu 09:00:20 PM 34.7069 -91.6000 304° West 446 513 36,000  Level Memphis Center
Thu 09:01:21 PM 34.7789 -91.7225 306° West 446 513 36,000  Level Memphis Center
Thu 09:02:21 PM 34.8442 -91.8450 303° West 446 513 36,000  Level Memphis Center
Thu 09:03:21 PM 34.9114 -91.9703 303° West 446 513 36,000  Level Memphis Center
Thu 09:04:21 PM 34.9808 -92.0958 304° West 446 513 36,000  Level Memphis Center
Thu 09:05:21 PM 35.0497 -92.2239 303° West 446 513 36,000  Level Memphis Center
Thu 09:06:21 PM 35.1189 -92.3500 304° West 446 513 36,000 50 Level Memphis Center
Thu 09:07:21 PM 35.1875 -92.4761 304° West 446 513 36,100 50 Climbing Memphis Center
Thu 09:08:21 PM 35.2564 -92.6050 303° West 446 513 36,100  Level Memphis Center
Thu 09:09:21 PM 35.3269 -92.7367 303° West 446 513 36,100  Level Memphis Center
Thu 09:10:21 PM 35.3933 -92.8633 303° West 454 522 36,100 -50 Level Memphis Center
Thu 09:11:21 PM 35.4617 -92.9878 304° West 449 517 36,000 -50 Descending Memphis Center
Thu 09:12:20 PM 35.5294 -93.1225 302° West 456 525 36,000  Level Memphis Center
Thu 09:13:21 PM 35.5975 -93.2497 303° West 449 517 36,000  Level Memphis Center
Thu 09:14:21 PM 35.6694 -93.3828 304° West 437 503 36,000 50 Level Memphis Center
Thu 09:15:21 PM 35.7353 -93.5078 303° West 432 497 36,100  Climbing Memphis Center
Thu 09:16:21 PM 35.8008 -93.6358 302° West 438 504 36,000 -50 Descending Memphis Center
Thu 09:17:21 PM 35.8664 -93.7586 303° West 438 504 36,000  Level Memphis Center
Thu 09:18:21 PM 35.9314 -93.8869 302° West 443 510 36,000  Level Memphis Center
Thu 09:19:21 PM 35.9967 -94.0131 303° West 443 510 36,000  Level Memphis Center
Thu 09:20:21 PM 36.0639 -94.1392 303° West 448 516 36,000 50 Level Memphis Center
Thu 09:21:20 PM 36.1308 -94.2656 303° West 442 509 36,100 50 Climbing Memphis Center
Thu 09:22:21 PM 36.1914 -94.3919 301° West 442 509 36,100 -32 Level Memphis Center
Thu 09:24:25 PM 36.3200 -94.6428 303° West 438 504 36,000 -32 Descending Kansas City Center
Thu 09:25:27 PM 36.3853 -94.7708 302° West 439 505 36,000 49 Level Kansas City Center
Thu 09:26:28 PM 36.4497 -94.9003 302° West 441 507 36,100 49 Climbing Kansas City Center
Thu 09:27:30 PM 36.5272 -95.0550 302° West 441 507 36,100  Level Kansas City Center
Thu 09:28:32 PM 36.5867 -95.1717 302° West 436 502 36,100 -49 Level Kansas City Center
Thu 09:29:33 PM 36.6536 -95.3075 302° West 434 499 36,000 -49 Descending Kansas City Center
Thu 09:30:35 PM 36.7150 -95.4322 302° West 430 495 36,000  Level Kansas City Center
Thu 09:31:36 PM 36.7775 -95.5575 302° West 428 493 36,000  Level Kansas City Center
Thu 09:32:38 PM 36.8397 -95.6844 302° West 429 494 36,000 49 Level Kansas City Center
Thu 09:33:39 PM 36.9144 -95.8400 301° West 436 502 36,100 49 Climbing Kansas City Center
Thu 09:34:41 PM 36.9761 -95.9692 301° West 433 498 36,100  Level Kansas City Center
Thu 09:35:42 PM 37.0386 -96.0956 302° West 429 494 36,100 -49 Level Kansas City Center
Thu 09:36:44 PM 37.1000 -96.2231 301° West 428 493 36,000 -49 Descending Kansas City Center
Thu 09:37:45 PM 37.1619 -96.3503 301° West 428 493 36,000 49 Level Kansas City Center
Thu 09:38:47 PM 37.2167 -96.4683 300° West 429 494 36,100 49 Climbing Kansas City Center
Thu 09:39:48 PM 37.2919 -96.6231 301° West 432 497 36,100 -49 Level Kansas City Center
Thu 09:40:50 PM 37.3539 -96.7525 301° West 433 498 36,000 -49 Descending Kansas City Center
Thu 09:41:51 PM 37.4175 -96.8833 302° West 439 505 36,000  Level Kansas City Center
Thu 09:42:53 PM 37.4792 -97.0153 301° West 437 503 36,000 49 Level Kansas City Center
Thu 09:43:54 PM 37.5425 -97.1492 301° West 443 510 36,100 49 Climbing Kansas City Center
Thu 09:44:56 PM 37.6053 -97.2825 301° West 444 511 36,100  Level Kansas City Center
Thu 09:45:57 PM 37.6683 -97.4172 301° West 444 511 36,100 -49 Level Kansas City Center
Thu 09:46:59 PM 37.7294 -97.5511 300° West 442 509 36,000  Descending Kansas City Center
Thu 09:48:00 PM 37.8050 -97.6744 308° West 445 512 36,100  Climbing Kansas City Center
Thu 09:49:02 PM 37.9022 -97.8197 310° West 447 514 36,000 -49 Descending Kansas City Center
Thu 09:50:03 PM 37.9819 -97.9406 310° West 447 514 36,000 49 Level Kansas City Center
Thu 09:51:04 PM 38.0536 -98.0475 310° West 445 512 36,100  Climbing Kansas City Center
Thu 09:52:06 PM 38.1311 -98.1650 310° West 436 502 36,000 -49 Descending Kansas City Center
Thu 09:53:07 PM 38.2233 -98.3042 310° West 430 495 36,000  Level Kansas City Center
Thu 09:54:09 PM 38.2972 -98.4183 310° West 421 484 36,000  Level Kansas City Center
Thu 09:55:10 PM 38.3725 -98.5342 310° West 425 489 36,000  Level Kansas City Center
Thu 09:56:12 PM 38.4483 -98.6519 309° West 428 493 36,000 49 Level Kansas City Center
Thu 09:57:13 PM 38.5250 -98.7711 309° West 433 498 36,100 49 Climbing Kansas City Center
Thu 09:58:15 PM 38.6014 -98.8911 309° West 435 501 36,100  Level Kansas City Center
Thu 09:59:16 PM 38.6789 -99.0103 310° West 436 502 36,100  Level Kansas City Center
Thu 10:00:17 PM 38.7578 -99.1311 310° West 441 507 36,100  Level Kansas City Center
Thu 10:01:19 PM 38.8247 -99.2611 303° West 439 505 36,100 -49 Level Kansas City Center
Thu 10:02:20 PM 38.8489 -99.4411 280° West 430 495 36,000 -49 Descending Kansas City Center
Thu 10:03:21 PM 38.8506 -99.5786 271° West 427 491 36,000  Level Kansas City Center
Thu 10:04:23 PM 38.8517 -99.7486 271° West 427 491 36,000 49 Level Kansas City Center
Thu 10:05:24 PM 38.8522 -99.8942 270° West 427 491 36,100  Climbing Kansas City Center
Thu 10:06:26 PM 38.8533 -100.0633 271° West 427 491 36,000  Descending Kansas City Center
Thu 10:07:27 PM 38.8544 -100.2094 271° West 428 493 36,100  Climbing Kansas City Center
Thu 10:08:43 PM 38.8556 -100.4014 270° West 425 489 36,000 -43 Descending Denver Center
Thu 10:09:45 PM 38.8550 -100.5458 270° West 424 488 36,000  Level Denver Center
Thu 10:10:46 PM 38.8550 -100.7142 270° West 425 489 36,000  Level Denver Center
Thu 10:11:48 PM 38.8553 -100.8600 270° West 429 494 36,000  Level Denver Center
Thu 10:12:50 PM 38.8542 -101.0269 270° West 422 486 36,000 48 Level Denver Center
Thu 10:13:52 PM 38.8542 -101.1719 270° West 424 488 36,100  Climbing Denver Center
Thu 10:15:06 PM 38.8525 -101.3667 269° West 428 493 36,000 -311 Descending Denver Center
Thu 10:16:07 PM 38.8522 -101.5131 270° West 430 495 35,400 -829 Descending Denver Center
Thu 10:17:09 PM 38.8503 -101.6864 269° West 434 499 34,300 -677 Descending Denver Center
Thu 10:18:11 PM 38.8489 -101.8325 269° West 432 497 34,000 -146 Descending Denver Center
Thu 10:19:12 PM 38.8464 -102.0003 269° West 422 486 34,000  Level Denver Center
Thu 10:20:14 PM 38.8442 -102.1425 269° West 417 480 34,000 -387 Level Denver Center
Thu 10:21:16 PM 38.8700 -102.2978 282° West 401 461 33,200 -878 Descending Denver Center
Thu 10:22:17 PM 38.9119 -102.4269 293° West 408 470 32,200 -585 Descending Denver Center
Thu 10:23:19 PM 38.9533 -102.5539 293° West 405 466 32,000 -98 Descending Denver Center
Thu 10:24:20 PM 39.0006 -102.6983 293° West 394 453 32,000  Level Denver Center
Thu 10:25:22 PM 39.0392 -102.8200 292° West 389 448 32,000 -145 Level Denver Center
Thu 10:26:24 PM 39.0831 -102.9506 293° West 392 451 31,700 -1,073 Descending Denver Center
Thu 10:27:25 PM 39.1289 -103.0967 292° West 376 433 29,800 -1,854 Descending Denver Center
Thu 10:28:27 PM 39.1683 -103.2150 293° West 359 413 27,900 -1,805 Descending Denver Center
Thu 10:29:28 PM 39.2050 -103.3314 292° West 348 400 26,100 -1,707 Descending Denver Center
Thu 10:30:30 PM 39.2406 -103.4422 293° West 333 383 24,400 -1,645 Descending Denver Center
Thu 10:31:32 PM 39.2747 -103.5500 292° West 324 373 22,700 -1,659 Descending Denver Center
Thu 10:32:33 PM 39.3072 -103.6533 292° West 310 357 21,000 -1,610 Descending Denver Center
Thu 10:33:35 PM 39.3386 -103.7531 292° West 300 345 19,400 -1,561 Descending Denver Center
Thu 10:34:36 PM 39.3706 -103.8531 292° West 300 345 17,800 -1,317 Descending Denver Center
Thu 10:35:38 PM 39.3986 -103.9675 288° West 307 353 16,700 -1,171 Descending Denver Center
Thu 10:36:39 PM 39.4031 -104.0783 273° West 306 352 15,400 -1,268 Descending Denver Center
Thu 10:37:41 PM 39.4072 -104.1881 273° West 289 333 14,100 -1,268 Descending Denver Center
Thu 10:38:42 PM 39.4128 -104.2847 274° West 277 319 12,800 -1,073 Descending Denver Center
Thu 10:39:44 PM 39.4481 -104.3697 298° West 269 310 11,900 -829 Descending Denver Center
Thu 10:40:45 PM 39.4950 -104.4461 309° West 273 314 11,100 -829 Descending Denver Center
Thu 10:41:47 PM 39.5506 -104.5192 315° West 268 308 10,200 -927 Descending Denver Center
Thu 10:42:48 PM 39.6153 -104.5619 333° Northwest 262 302 9,200 -984 Descending Denver Center

Login

Don't have an account? Register now (free) for customized features, flight alerts, and more!